Time;durP1;ratioP1;P1;durP2;ratioP2;P2;SDS_P1;SDS_P2;PMS_P1;PMS_P2;Temp;Humidity;BMP_temperature;BMP_pressure;BME280_temperature;BME280_humidity;BME280_pressure;Samples;Min_cycle;Max_cycle;Signal;HPM_P1;HPM_P2
2023/05/09 00:01:34;;;;;;;33.60;19.33;;;;;;;13.99;100.00;101606.53;5035738;28;20045;-87
2023/05/09 00:04:00;;;;;;;33.40;17.80;;;;;;;14.06;100.00;101600.25;5018475;28;20076;-87
2023/05/09 00:06:29;;;;;;;32.03;17.40;;;;;;;14.04;100.00;101606.75;5018066;28;20389;-87
2023/05/09 00:08:55;;;;;;;29.85;17.25;;;;;;;14.02;100.00;101597.94;5035625;28;20041;-87
2023/05/09 00:11:23;;;;;;;30.27;17.67;;;;;;;14.04;100.00;101600.47;5033443;28;20037;-88
2023/05/09 00:14:04;;;;;;;;;;;;;;;;;;;;;
2023/05/09 00:16:33;;;;;;;31.65;17.30;;;;;;;14.01;100.00;101598.13;5036795;28;20033;-89
2023/05/09 00:18:58;;;;;;;31.50;17.85;;;;;;;13.98;100.00;101593.13;5001548;28;20084;-89
2023/05/09 00:21:24;;;;;;;31.37;17.30;;;;;;;13.94;100.00;101586.47;5018080;28;20022;-89
2023/05/09 00:24:00;;;;;;;31.53;17.87;;;;;;;13.92;100.00;101583.97;5018378;28;20280;-89
2023/05/09 00:26:26;;;;;;;29.67;17.33;;;;;;;13.89;100.00;101594.44;5035852;28;20033;-89
2023/05/09 00:29:07;;;;;;;;;;;;;;;;;;;;;
2023/05/09 00:31:40;;;;;;;33.63;16.58;;;;;;;13.82;100.00;101580.88;5035385;28;20022;-89
2023/05/09 00:37:17;;;;;;;25.40;15.13;;;;;;;13.84;100.00;101574.13;5015376;28;20092;-89
2023/05/09 00:40:26;;;;;;;25.23;15.90;;;;;;;13.85;100.00;101573.06;5017493;28;20037;-89
2023/05/09 00:42:57;;;;;;;31.60;15.43;;;;;;;13.86;100.00;101574.75;5010134;28;20041;-89
2023/05/09 00:45:47;;;;;;;24.30;14.98;;;;;;;13.92;100.00;101586.69;5017635;28;20029;-89
2023/05/09 00:48:30;;;;;;;;;;;;;;;;;;;;;
2023/05/09 00:51:05;;;;;;;25.20;14.60;;;;;;;13.94;100.00;101576.38;5035228;28;20025;-89
2023/05/09 00:53:41;;;;;;;24.77;14.63;;;;;;;13.93;100.00;101558.31;5018000;28;20030;-89
2023/05/09 00:56:10;;;;;;;22.52;14.13;;;;;;;13.94;100.00;101556.47;5018877;28;20032;-89
2023/05/09 00:58:42;;;;;;;23.80;13.75;;;;;;;13.95;100.00;101561.69;5035554;28;20116;-89
2023/05/09 01:01:41;;;;;;;;;;;;;;;;;;;;;
2023/05/09 01:04:22;;;;;;;24.67;13.73;;;;;;;13.91;100.00;101549.53;5034371;28;20026;-89
2023/05/09 01:07:07;;;;;;;24.33;13.68;;;;;;;13.90;100.00;101549.75;5033289;28;20036;-89
2023/05/09 01:09:50;;;;;;;25.48;14.23;;;;;;;13.87;100.00;101542.84;5017247;28;20472;-89
2023/05/09 01:12:27;;;;;;;21.08;13.73;;;;;;;13.85;100.00;101536.78;5016945;28;20037;-89
2023/05/09 01:15:01;;;;;;;19.55;13.00;;;;;;;13.86;100.00;101536.56;5016442;28;20572;-89
2023/05/09 01:17:57;;;;;;;23.17;14.03;;;;;;;13.86;100.00;101532.97;5034655;28;20030;-89
2023/05/09 01:20:44;;;;;;;;;;;;;;;;;;;;;
2023/05/09 01:23:51;;;;;;;26.45;13.68;;;;;;;13.87;100.00;101515.56;5035860;28;20037;-89
2023/05/09 01:26:22;;;;;;;22.27;13.07;;;;;;;13.86;100.00;101509.28;5017537;28;20037;-89
2023/05/09 01:29:11;;;;;;;24.13;13.70;;;;;;;13.86;100.00;101506.56;5035056;28;20109;-89
2023/05/09 01:31:57;;;;;;;22.67;13.73;;;;;;;13.85;100.00;101499.44;5034963;28;20037;-89
2023/05/09 01:34:33;;;;;;;25.90;14.23;;;;;;;13.84;100.00;101505.94;5016566;28;20041;-89
2023/05/09 01:37:07;;;;;;;20.50;13.55;;;;;;;13.87;100.00;101499.19;5016757;28;20026;-89
2023/05/09 01:39:41;;;;;;;23.13;13.60;;;;;;;13.89;100.00;101497.06;5016818;28;20392;-89
2023/05/09 01:42:10;;;;;;;21.40;14.07;;;;;;;13.88;100.00;101491.84;5016603;28;20061;-89
2023/05/09 01:44:45;;;;;;;25.37;14.30;;;;;;;13.83;100.00;101487.06;5016725;28;20445;-89
2023/05/09 01:47:11;;;;;;;22.90;14.00;;;;;;;13.81;100.00;101486.47;5017217;28;20180;-89
2023/05/09 01:49:41;;;;;;;24.13;14.15;;;;;;;13.77;100.00;101477.03;5015968;28;20548;-89
2023/05/09 01:52:20;;;;;;;20.60;14.53;;;;;;;13.74;100.00;101475.59;5016485;28;20053;-89
2023/05/09 01:54:47;;;;;;;25.55;14.07;;;;;;;13.72;100.00;101471.44;5033740;28;20024;-89
2023/05/09 01:57:13;;;;;;;22.88;14.77;;;;;;;13.67;100.00;101469.34;5016029;28;20029;-89
2023/05/09 01:59:44;;;;;;;21.75;13.77;;;;;;;13.66;100.00;101473.16;5015770;28;20071;-89
2023/05/09 02:02:13;;;;;;;25.23;15.15;;;;;;;13.63;100.00;101471.69;5015885;28;20053;-89
2023/05/09 02:04:42;;;;;;;25.90;14.27;;;;;;;13.61;100.00;101467.50;5016150;28;20033;-89
2023/05/09 02:07:09;;;;;;;24.63;14.68;;;;;;;13.60;100.00;101471.31;5016043;28;20497;-88
2023/05/09 02:09:49;;;;;;;23.58;14.38;;;;;;;13.56;100.00;101459.16;5015809;28;20112;-89
2023/05/09 02:12:17;;;;;;;23.30;14.35;;;;;;;13.54;100.00;101456.66;5012553;28;20055;-89
2023/05/09 02:14:43;;;;;;;24.23;14.85;;;;;;;13.56;100.00;101465.44;5032942;28;20033;-89
2023/05/09 02:17:26;;;;;;;;;;;;;;;;;;;;;
2023/05/09 02:19:54;;;;;;;22.95;13.50;;;;;;;13.53;100.00;101470.50;5033553;28;20021;-89
2023/05/09 02:22:19;;;;;;;25.35;14.27;;;;;;;13.54;100.00;101478.47;5033402;28;20057;-89
2023/05/09 02:24:45;;;;;;;32.27;15.17;;;;;;;13.49;100.00;101465.50;5015693;28;20426;-89
2023/05/09 02:27:13;;;;;;;23.73;14.27;;;;;;;13.49;100.00;101476.41;5016034;28;20064;-88
2023/05/09 02:29:45;;;;;;;24.40;14.23;;;;;;;13.45;100.00;101469.72;5033498;28;20029;-89
2023/05/09 02:32:17;;;;;;;26.33;14.77;;;;;;;13.41;100.00;101473.09;5015770;28;20029;-89
2023/05/09 02:34:45;;;;;;;25.13;13.90;;;;;;;13.41;100.00;101468.47;5015279;28;20508;-89
2023/05/09 02:37:19;;;;;;;26.05;14.98;;;;;;;13.38;100.00;101474.38;5015746;28;20032;-89
2023/05/09 02:39:50;;;;;;;25.10;13.87;;;;;;;13.32;100.00;101467.88;5033337;28;20063;-89
2023/05/09 02:42:28;;;;;;;28.55;14.80;;;;;;;13.30;100.00;101466.41;5014326;28;20034;-89
2023/05/09 02:44:57;;;;;;;26.85;14.65;;;;;;;13.28;100.00;101463.06;5015431;28;20432;-89
2023/05/09 02:47:24;;;;;;;25.60;14.50;;;;;;;13.29;100.00;101460.13;5015313;28;20034;-88
2023/05/09 02:49:55;;;;;;;25.58;14.52;;;;;;;13.27;100.00;101456.81;4999663;28;20073;-89
2023/05/09 02:52:20;;;;;;;27.03;15.63;;;;;;;13.30;100.00;101458.22;5014783;28;20041;-89
2023/05/09 02:54:48;;;;;;;24.58;14.13;;;;;;;13.25;100.00;101452.63;5016664;28;20029;-89
2023/05/09 02:57:16;;;;;;;28.35;14.50;;;;;;;13.25;100.00;101456.16;5015646;28;20029;-89
2023/05/09 02:59:52;;;;;;;24.73;14.53;;;;;;;13.24;100.00;101449.06;5015608;28;20067;-89
2023/05/09 03:02:20;;;;;;;25.23;14.70;;;;;;;13.24;100.00;101438.16;5015461;28;20034;-89
2023/05/09 03:04:50;;;;;;;24.33;14.45;;;;;;;13.24;100.00;101434.59;5015401;28;20045;-89
2023/05/09 03:07:18;;;;;;;25.70;14.45;;;;;;;13.25;100.00;101437.09;5016325;28;20442;-89
2023/05/09 03:09:46;;;;;;;27.42;15.32;;;;;;;13.26;100.00;101429.78;5015393;28;20051;-89
2023/05/09 03:12:12;;;;;;;23.67;14.60;;;;;;;13.30;100.00;101425.53;5014638;28;20032;-88
2023/05/09 03:14:51;;;;;;;30.33;16.02;;;;;;;13.28;100.00;101422.19;5015039;28;20026;-89
2023/05/09 03:17:24;;;;;;;25.00;15.10;;;;;;;13.29;100.00;101421.97;5015246;28;20025;-89
2023/05/09 03:19:52;;;;;;;32.37;15.50;;;;;;;13.28;100.00;101423.03;4999068;28;20483;-89
2023/05/09 03:22:18;;;;;;;28.42;15.20;;;;;;;13.30;100.00;101426.38;5031682;28;20028;-89
2023/05/09 03:24:50;;;;;;;28.63;14.97;;;;;;;13.31;100.00;101424.47;5015862;28;20081;-89
2023/05/09 03:27:18;;;;;;;29.27;15.40;;;;;;;13.31;100.00;101416.31;5001895;28;20099;-89
2023/05/09 03:29:44;;;;;;;25.38;14.48;;;;;;;13.31;100.00;101414.41;5036493;28;20091;-89
2023/05/09 03:32:27;;;;;;;29.07;15.23;;;;;;;13.31;100.00;101416.31;5018782;28;20120;-89
2023/05/09 03:35:00;;;;;;;29.67;15.00;;;;;;;13.32;100.00;101420.72;5018631;28;20040;-89
2023/05/09 03:37:31;;;;;;;23.45;14.60;;;;;;;13.29;100.00;101410.25;5002826;28;20391;-89
2023/05/09 03:39:59;;;;;;;25.48;14.30;;;;;;;13.28;100.00;101403.94;5018405;28;20026;-89
2023/05/09 03:42:25;;;;;;;26.02;14.45;;;;;;;13.27;100.00;101402.31;5018087;28;20025;-89
2023/05/09 03:44:51;;;;;;;25.13;15.10;;;;;;;13.33;100.00;101409.59;5002219;28;20042;-89
2023/05/09 03:47:17;;;;;;;24.05;14.65;;;;;;;13.32;100.00;101402.47;5018529;28;20021;-89
2023/05/09 03:49:45;;;;;;;26.47;14.77;;;;;;;13.29;100.00;101394.72;5017682;28;20392;-88
2023/05/09 03:52:11;;;;;;;29.95;14.45;;;;;;;13.33;100.00;101397.84;5019201;28;20350;-89
2023/05/09 03:54:36;;;;;;;27.90;14.40;;;;;;;13.32;100.00;101399.72;5018587;28;20040;-89
2023/05/09 03:57:04;;;;;;;26.52;15.00;;;;;;;13.34;100.00;101396.81;5018296;28;20079;-89
2023/05/09 03:59:29;;;;;;;25.90;14.07;;;;;;;13.38;100.00;101394.50;5036033;28;20068;-89
2023/05/09 04:02:10;;;;;;;26.40;14.50;;;;;;;13.35;100.00;101392.22;5017987;28;20060;-89
2023/05/09 04:04:45;;;;;;;22.38;13.20;;;;;;;13.38;100.00;101384.44;5018431;28;20117;-89
2023/05/09 04:07:18;;;;;;;21.73;13.45;;;;;;;13.38;100.00;101375.44;5018459;28;20082;-89
2023/05/09 04:09:46;;;;;;;24.70;13.60;;;;;;;13.45;100.00;101377.03;5018443;28;20040;-89
2023/05/09 04:12:14;;;;;;;22.83;13.38;;;;;;;13.48;100.00;101375.75;5001120;28;20033;-89
2023/05/09 04:14:43;;;;;;;21.77;13.75;;;;;;;13.47;100.00;101364.00;5002528;28;20045;-89
2023/05/09 04:17:13;;;;;;;26.33;14.30;;;;;;;13.48;100.00;101368.41;5017778;28;20025;-89
2023/05/09 04:19:39;;;;;;;26.27;13.10;;;;;;;13.44;100.00;101361.72;5018122;28;20037;-89
2023/05/09 04:22:04;;;;;;;23.63;12.90;;;;;;;13.45;100.00;101366.13;5017465;28;20370;-89
2023/05/09 04:24:34;;;;;;;21.90;12.83;;;;;;;13.42;100.00;101361.13;5017849;28;20048;-88
2023/05/09 04:27:00;;;;;;;22.08;12.40;;;;;;;13.45;100.00;101368.88;5017470;28;20029;-88
2023/05/09 04:29:32;;;;;;;19.63;11.80;;;;;;;13.46;100.00;101377.84;5035331;28;20029;-89
2023/05/09 04:32:03;;;;;;;17.83;11.43;;;;;;;13.43;100.00;101367.41;5017370;28;20095;-89
2023/05/09 04:34:29;;;;;;;20.90;11.97;;;;;;;13.42;100.00;101357.56;5035326;28;20091;-89
2023/05/09 04:36:57;;;;;;;18.30;11.68;;;;;;;13.46;100.00;101366.97;5017518;28;20041;-89
2023/05/09 04:39:25;;;;;;;16.15;10.35;;;;;;;13.50;100.00;101360.00;5035057;28;20095;-89
2023/05/09 04:41:53;;;;;;;16.30;10.33;;;;;;;13.55;100.00;101357.44;5015089;28;20038;-89
2023/05/09 04:44:21;;;;;;;18.15;10.82;;;;;;;13.58;100.00;101357.03;5015407;28;20048;-89
2023/05/09 04:46:46;;;;;;;19.08;10.80;;;;;;;13.63;100.00;101353.63;4981333;28;20045;-88
2023/05/09 04:49:14;;;;;;;18.47;11.10;;;;;;;13.70;100.00;101354.41;4980714;28;20397;-90
2023/05/09 04:51:47;;;;;;;15.40;10.03;;;;;;;13.76;100.00;101352.63;4981486;28;20407;-90
2023/05/09 04:54:30;;;;;;;;;;;;;;;;;;;;;
2023/05/09 04:57:09;;;;;;;16.80;10.70;;;;;;;13.89;100.00;101341.59;5015602;28;20038;-90
2023/05/09 04:59:38;;;;;;;16.67;10.50;;;;;;;13.91;100.00;101335.94;5015126;28;20029;-90
2023/05/09 05:02:11;;;;;;;15.82;9.80;;;;;;;13.91;100.00;101339.50;4981261;28;20049;-89
2023/05/09 05:04:41;;;;;;;15.70;10.10;;;;;;;13.91;100.00;101323.13;4998581;28;20124;-88
2023/05/09 05:07:06;;;;;;;15.65;10.38;;;;;;;13.94;100.00;101311.75;4997425;28;20048;-91
2023/05/09 05:09:37;;;;;;;17.33;10.10;;;;;;;13.98;100.00;101314.84;5015042;28;20021;-88
2023/05/09 05:12:16;;;;;;;;;;;;;;;;;;;;;
2023/05/09 05:14:41;;;;;;;13.55;9.50;;;;;;;14.08;100.00;101304.25;5015239;28;20141;-90
2023/05/09 05:17:09;;;;;;;19.93;10.40;;;;;;;14.11;100.00;101298.34;5014864;28;20440;-90
2023/05/09 05:19:35;;;;;;;16.15;10.07;;;;;;;14.16;100.00;101295.78;4996977;28;20048;-89
2023/05/09 05:22:23;;;;;;;14.77;10.45;;;;;;;14.23;100.00;101298.41;4996875;28;20462;-89
2023/05/09 05:24:51;;;;;;;19.03;10.40;;;;;;;14.33;100.00;101303.34;4996929;28;20036;-89
2023/05/09 05:27:17;;;;;;;17.15;10.05;;;;;;;14.37;100.00;101291.72;4996758;28;20034;-84
2023/05/09 05:29:43;;;;;;;15.25;9.85;;;;;;;14.52;100.00;101293.22;5014532;28;20034;-85
2023/05/09 05:32:09;;;;;;;17.77;10.07;;;;;;;14.66;100.00;101291.16;4995777;28;20050;-86
2023/05/09 05:34:40;;;;;;;17.02;10.55;;;;;;;14.81;100.00;101286.13;4980601;28;20034;-90
2023/05/09 05:37:10;;;;;;;14.93;9.70;;;;;;;14.97;100.00;101287.34;5014042;28;20026;-90
2023/05/09 05:39:50;;;;;;;15.30;10.05;;;;;;;15.11;100.00;101285.22;4996430;28;20093;-89
2023/05/09 05:42:21;;;;;;;15.43;10.60;;;;;;;15.20;100.00;101291.19;4996476;28;20029;-90
2023/05/09 05:44:46;;;;;;;18.00;10.40;;;;;;;15.24;100.00;101279.53;5014445;28;20517;-90
2023/05/09 05:47:12;;;;;;;14.37;9.70;;;;;;;15.25;100.00;101278.47;4996110;28;20096;-89
2023/05/09 05:50:39;;;;;;;;;;;;;;;;;;;;;
2023/05/09 05:53:14;;;;;;;13.68;9.68;;;;;;;15.30;100.00;101276.94;5016186;28;20034;-90
2023/05/09 05:56:00;;;;;;;15.70;10.13;;;;;;;15.38;100.00;101271.97;4996443;28;20096;-90
2023/05/09 05:58:34;;;;;;;18.73;9.90;;;;;;;15.43;100.00;101274.81;4996302;28;20042;-90
2023/05/09 06:01:02;;;;;;;14.00;9.93;;;;;;;15.55;100.00;101263.03;4996585;28;20374;-90
2023/05/09 06:03:30;;;;;;;14.52;9.90;;;;;;;15.61;100.00;101271.09;4996392;28;20457;-90
2023/05/09 06:06:03;;;;;;;15.85;9.90;;;;;;;15.64;100.00;101258.88;4996143;28;20030;-88
2023/05/09 06:08:36;;;;;;;15.13;9.85;;;;;;;15.71;100.00;101262.31;4981376;28;20445;-89
2023/05/09 06:11:11;;;;;;;;;;;;;;;;;;;;;
2023/05/09 06:13:45;;;;;;;14.43;9.60;;;;;;;15.66;100.00;101255.88;5013397;28;20040;-90
2023/05/09 06:16:11;;;;;;;13.88;9.93;;;;;;;15.60;100.00;101261.25;4979787;28;20046;-90
2023/05/09 06:18:41;;;;;;;12.02;9.35;;;;;;;15.51;100.00;101249.00;4995591;28;20041;-90
2023/05/09 06:21:07;;;;;;;16.63;9.05;;;;;;;15.50;100.00;101243.78;5014009;28;20092;-90
2023/05/09 06:23:35;;;;;;;15.60;10.37;;;;;;;15.51;100.00;101243.53;5028599;28;20026;-90
2023/05/09 06:26:03;;;;;;;19.90;10.20;;;;;;;15.50;100.00;101249.25;4995864;28;20109;-90
2023/05/09 06:28:39;;;;;;;15.70;10.43;;;;;;;15.47;100.00;101250.53;5028450;28;20115;-90
2023/05/09 06:31:07;;;;;;;14.00;10.70;;;;;;;15.43;100.00;101244.72;4998308;28;20037;-90
2023/05/09 06:33:35;;;;;;;14.70;10.38;;;;;;;15.55;100.00;101247.47;4996784;28;20030;-90
2023/05/09 06:36:06;;;;;;;13.45;9.95;;;;;;;15.59;100.00;101248.66;4979710;28;20065;-90
2023/05/09 06:38:49;;;;;;;12.10;9.70;;;;;;;15.67;100.00;101235.69;4996333;28;20038;-90
2023/05/09 06:41:16;;;;;;;17.03;10.17;;;;;;;15.74;100.00;101233.66;4995830;28;20093;-90
2023/05/09 06:43:42;;;;;;;15.98;10.30;;;;;;;15.79;100.00;101231.88;4995348;28;20038;-90
2023/05/09 06:46:18;;;;;;;14.33;9.90;;;;;;;15.77;100.00;101241.38;4995726;28;20504;-90
2023/05/09 06:48:46;;;;;;;14.57;9.10;;;;;;;15.76;100.00;101232.31;4980264;28;20133;-91
2023/05/09 06:51:11;;;;;;;14.13;9.45;;;;;;;15.79;100.00;101220.91;4979405;28;20037;-90
2023/05/09 06:53:39;;;;;;;12.77;8.80;;;;;;;15.89;100.00;101224.97;4995854;28;20370;-90
2023/05/09 06:56:09;;;;;;;15.98;9.07;;;;;;;15.89;100.00;101222.22;5013312;28;20033;-90
2023/05/09 06:58:40;;;;;;;14.88;9.18;;;;;;;15.84;100.00;101214.75;4995711;28;20088;-90
2023/05/09 07:01:08;;;;;;;12.07;8.57;;;;;;;15.81;100.00;101215.25;4981223;28;20153;-90
2023/05/09 07:03:34;;;;;;;14.77;8.82;;;;;;;15.83;100.00;101206.78;4999607;28;20477;-90
2023/05/09 07:06:02;;;;;;;13.20;9.00;;;;;;;15.78;100.00;101213.81;5017810;28;20037;-89
2023/05/09 07:08:30;;;;;;;13.95;8.77;;;;;;;15.76;100.00;101212.34;4999778;28;20489;-89
2023/05/09 07:10:56;;;;;;;12.93;8.48;;;;;;;15.76;100.00;101210.44;5000502;28;20026;-90
2023/05/09 07:13:23;;;;;;;14.30;8.80;;;;;;;15.75;100.00;101208.78;4999354;28;20033;-90
2023/05/09 07:15:57;;;;;;;13.18;8.45;;;;;;;15.69;100.00;101197.97;5000183;28;20037;-90
2023/05/09 07:18:25;;;;;;;11.30;8.18;;;;;;;15.72;100.00;101206.53;4999779;28;20098;-91
2023/05/09 07:21:01;;;;;;;13.57;8.20;;;;;;;15.63;100.00;101198.94;5016367;28;20366;-90
2023/05/09 07:23:40;;;;;;;14.77;8.60;;;;;;;15.46;100.00;101193.34;4983077;28;20085;-90
2023/05/09 07:26:11;;;;;;;9.85;7.35;;;;;;;15.37;100.00;101203.84;4983979;28;20038;-90
2023/05/09 07:29:00;;;;;;;11.00;8.20;;;;;;;15.38;100.00;101200.88;4999156;28;20465;-90
2023/05/09 07:31:25;;;;;;;9.57;6.93;;;;;;;15.23;100.00;101197.78;5032477;28;20034;-90
2023/05/09 07:34:03;;;;;;;12.73;8.37;;;;;;;14.93;100.00;101204.19;4999093;28;20472;-89
2023/05/09 07:36:31;;;;;;;12.15;8.43;;;;;;;14.69;100.00;101200.56;4999472;28;20477;-91
2023/05/09 07:39:10;;;;;;;11.50;8.40;;;;;;;14.48;100.00;101204.66;4985477;28;20432;-90
2023/05/09 07:41:45;;;;;;;13.05;8.95;;;;;;;14.23;100.00;101193.88;5000020;28;20045;-90
2023/05/09 07:44:11;;;;;;;12.48;8.93;;;;;;;14.15;100.00;101198.59;4998876;28;20045;-90
2023/05/09 07:46:39;;;;;;;13.25;9.98;;;;;;;14.06;100.00;101190.97;4998756;28;20038;-90
2023/05/09 07:49:13;;;;;;;13.33;9.13;;;;;;;14.02;100.00;101191.44;5016243;28;20053;-91
2023/05/09 07:51:43;;;;;;;15.48;9.68;;;;;;;13.93;100.00;101195.53;4999913;28;20491;-90
2023/05/09 07:54:11;;;;;;;15.20;9.68;;;;;;;13.89;100.00;101197.03;4983169;28;20060;-91
2023/05/09 07:56:47;;;;;;;15.95;10.23;;;;;;;13.81;100.00;101192.72;4981623;28;20042;-91
2023/05/09 07:59:22;;;;;;;13.77;10.10;;;;;;;13.81;100.00;101184.56;4996264;28;20399;-90
2023/05/09 08:01:53;;;;;;;14.50;10.40;;;;;;;13.81;100.00;101181.00;4999075;28;20045;-91
2023/05/09 08:04:21;;;;;;;19.00;10.98;;;;;;;13.83;100.00;101177.00;4982705;28;20041;-90
2023/05/09 08:06:49;;;;;;;17.40;11.07;;;;;;;13.92;100.00;101168.47;4982124;28;20029;-89
2023/05/09 08:09:22;;;;;;;14.48;10.70;;;;;;;13.99;100.00;101174.69;4998655;28;20116;-89
2023/05/09 08:11:55;;;;;;;19.98;9.18;;;;;;;13.98;100.00;101160.22;4999463;28;20062;-90
2023/05/09 08:14:28;;;;;;;14.17;8.83;;;;;;;13.98;100.00;101162.09;4997949;28;20043;-90
2023/05/09 08:17:03;;;;;;;10.13;7.90;;;;;;;14.03;100.00;101159.53;4983711;28;20034;-90
2023/05/09 08:19:33;;;;;;;11.90;8.63;;;;;;;14.13;100.00;101148.03;4998394;28;20030;-90
2023/05/09 08:22:02;;;;;;;13.23;8.05;;;;;;;14.18;100.00;101154.47;4982169;28;20050;-90
2023/05/09 08:24:32;;;;;;;12.50;8.07;;;;;;;14.11;100.00;101145.53;4998866;28;20037;-90
2023/05/09 08:26:57;;;;;;;10.67;7.90;;;;;;;14.00;100.00;101143.63;4998228;28;20022;-89
2023/05/09 08:29:23;;;;;;;11.25;8.18;;;;;;;13.97;100.00;101133.16;4998383;28;20402;-90
2023/05/09 08:31:58;;;;;;;10.97;8.20;;;;;;;13.95;100.00;101130.69;4997993;28;20068;-90
2023/05/09 08:34:33;;;;;;;12.18;7.93;;;;;;;13.98;100.00;101146.56;4982768;28;20512;-90
2023/05/09 08:37:01;;;;;;;12.48;8.40;;;;;;;13.94;100.00;101130.91;4997603;28;20038;-90
2023/05/09 08:39:37;;;;;;;11.48;7.72;;;;;;;13.86;100.00;101127.44;4998447;28;20091;-90
2023/05/09 08:42:18;;;;;;;;;;;;;;;;;;;;;
2023/05/09 08:44:44;;;;;;;12.40;8.93;;;;;;;13.91;100.00;101128.66;5015720;28;20060;-90
2023/05/09 08:47:14;;;;;;;13.53;9.77;;;;;;;13.89;100.00;101126.13;4998032;28;20120;-90
2023/05/09 08:49:43;;;;;;;12.68;9.98;;;;;;;13.91;100.00;101118.56;4997433;28;20085;-90
2023/05/09 08:52:10;;;;;;;15.25;10.23;;;;;;;13.97;100.00;101127.72;4982171;28;20049;-91
2023/05/09 08:54:45;;;;;;;10.75;7.90;;;;;;;13.90;100.00;101126.97;4997994;28;20056;-90
2023/05/09 08:57:18;;;;;;;14.63;10.57;;;;;;;13.86;100.00;101116.53;4998115;28;20032;-91
2023/05/09 08:59:45;;;;;;;14.03;9.47;;;;;;;13.77;100.00;101115.16;4998105;28;20129;-91
2023/05/09 09:02:13;;;;;;;16.60;10.43;;;;;;;13.88;100.00;101105.38;4997773;28;20032;-91
2023/05/09 09:04:41;;;;;;;14.25;9.23;;;;;;;13.90;100.00;101111.44;4997940;28;20026;-90
2023/05/09 09:07:07;;;;;;;14.43;9.63;;;;;;;13.94;100.00;101107.19;4997100;28;20042;-89
2023/05/09 09:09:40;;;;;;;11.43;7.73;;;;;;;13.83;100.00;101110.69;4997522;28;20037;-91
2023/05/09 09:12:08;;;;;;;11.32;8.00;;;;;;;13.76;100.00;101113.50;5014715;28;20022;-83
2023/05/09 09:14:37;;;;;;;12.23;7.90;;;;;;;13.74;100.00;101121.06;4997110;28;20112;-85
2023/05/09 09:17:05;;;;;;;15.32;8.45;;;;;;;13.69;100.00;101107.31;5015083;28;20068;-85
2023/05/09 09:19:33;;;;;;;13.38;8.23;;;;;;;13.65;100.00;101111.56;5014981;28;20037;-85
2023/05/09 09:22:05;;;;;;;12.40;7.97;;;;;;;13.75;100.00;101106.38;4980573;28;20037;-85
2023/05/09 09:24:31;;;;;;;13.55;7.63;;;;;;;13.75;100.00;101108.28;5014731;28;20031;-85
2023/05/09 09:26:56;;;;;;;11.13;7.78;;;;;;;13.73;100.00;101105.78;4996923;28;20038;-84
2023/05/09 09:29:22;;;;;;;13.73;8.73;;;;;;;13.98;100.00;101096.63;5014644;28;20022;-84
2023/05/09 09:31:52;;;;;;;14.27;8.93;;;;;;;14.17;100.00;101092.78;4996784;28;20025;-84
2023/05/09 09:34:20;;;;;;;14.00;8.13;;;;;;;14.23;100.00;101093.72;4996961;28;20070;-84
2023/05/09 09:36:47;;;;;;;9.75;7.55;;;;;;;14.26;100.00;101086.97;4996987;28;20036;-84
2023/05/09 09:39:13;;;;;;;9.23;7.07;;;;;;;14.37;100.00;101088.91;4996915;28;20060;-85
2023/05/09 09:41:39;;;;;;;8.25;6.47;;;;;;;14.34;100.00;101089.38;5014489;28;20512;-84
2023/05/09 09:44:15;;;;;;;7.80;6.57;;;;;;;14.26;100.00;101085.09;4980113;28;20026;-84
2023/05/09 09:46:45;;;;;;;10.10;6.40;;;;;;;14.23;100.00;101085.53;5014193;28;20030;-85
2023/05/09 09:49:15;;;;;;;12.07;7.05;;;;;;;14.29;100.00;101076.44;5014168;28;20085;-85
2023/05/09 09:51:41;;;;;;;9.15;6.88;;;;;;;14.23;100.00;101080.09;4996241;28;20021;-84
2023/05/09 09:54:08;;;;;;;12.88;6.75;;;;;;;14.41;100.00;101083.78;5014114;28;20026;-85
2023/05/09 09:56:47;;;;;;;10.07;7.23;;;;;;;14.25;100.00;101082.59;5014043;28;20030;-85
2023/05/09 09:59:18;;;;;;;11.65;6.95;;;;;;;14.29;100.00;101078.31;4996487;28;20461;-85
2023/05/09 10:02:05;;;;;;;9.27;7.03;;;;;;;14.17;100.00;101070.09;4980447;28;20038;-85
2023/05/09 10:04:33;;;;;;;9.50;7.10;;;;;;;14.21;100.00;101068.59;5013944;28;20080;-85
2023/05/09 10:07:04;;;;;;;12.63;7.70;;;;;;;14.26;100.00;101062.41;5013870;28;20045;-85
2023/05/09 10:09:31;;;;;;;11.50;7.80;;;;;;;14.40;100.00;101063.88;5013957;28;20038;-84
2023/05/09 10:12:03;;;;;;;8.10;6.78;;;;;;;14.35;100.00;101053.66;4996395;28;20037;-85
2023/05/09 10:14:31;;;;;;;11.70;7.65;;;;;;;14.36;100.00;101058.06;5013534;28;20025;-86
2023/05/09 10:16:57;;;;;;;10.98;7.43;;;;;;;14.44;100.00;101062.34;4996335;28;20030;-85
2023/05/09 10:19:25;;;;;;;13.05;7.32;;;;;;;14.51;100.00;101054.88;4996298;28;20022;-84
2023/05/09 10:22:04;;;;;;;8.70;6.70;;;;;;;14.43;100.00;101051.66;5013621;28;20537;-90
2023/05/09 10:24:50;;;;;;;9.73;6.85;;;;;;;14.33;100.00;101050.31;4995748;28;20533;-89
2023/05/09 10:27:21;;;;;;;10.10;7.50;;;;;;;14.30;100.00;101058.16;4995878;28;20030;-89
2023/05/09 10:30:22;;;;;;;11.95;7.57;;;;;;;14.32;100.00;101042.38;4996052;28;20046;-89
2023/05/09 10:33:22;;;;;;;12.55;7.20;;;;;;;14.12;100.00;101049.00;4995537;28;20038;-90
2023/05/09 10:35:54;;;;;;;10.83;7.20;;;;;;;14.16;100.00;101046.63;4944507;28;20042;-90
2023/05/09 10:38:51;;;;;;;9.65;7.57;;;;;;;14.13;100.00;101042.47;4995948;28;20045;-90
2023/05/09 10:41:17;;;;;;;10.70;8.07;;;;;;;14.25;100.00;101039.75;4965732;28;20077;-90
2023/05/09 10:43:47;;;;;;;11.82;9.00;;;;;;;14.32;100.00;101032.31;4976233;28;20038;-90
2023/05/09 10:46:25;;;;;;;11.38;7.95;;;;;;;14.23;100.00;101021.94;4976766;28;20092;-92
2023/05/09 10:48:52;;;;;;;10.17;7.57;;;;;;;14.17;100.00;101021.84;4977021;28;20033;-90
2023/05/09 10:51:34;;;;;;;13.43;8.35;;;;;;;14.25;100.00;101023.38;4976433;28;20496;-90
2023/05/09 10:54:12;;;;;;;9.15;7.50;;;;;;;14.17;100.00;101024.56;4976502;28;20030;-90
2023/05/09 10:56:45;;;;;;;10.35;7.80;;;;;;;14.08;100.00;101020.50;4976840;28;20026;-92
2023/05/09 11:00:01;;;;;;;12.10;7.47;;;;;;;13.96;100.00;101023.22;4977047;28;20068;-89
2023/05/09 11:02:31;;;;;;;13.00;8.20;;;;;;;13.96;100.00;101020.47;4972311;28;20042;-91
2023/05/09 11:05:19;;;;;;;11.80;8.65;;;;;;;13.93;100.00;101018.22;4976678;28;20125;-89
2023/05/09 11:07:47;;;;;;;12.63;9.05;;;;;;;13.91;100.00;101009.44;4993955;28;20091;-89
2023/05/09 11:10:19;;;;;;;12.63;8.68;;;;;;;13.84;100.00;101012.28;4976291;28;20404;-90
2023/05/09 11:12:57;;;;;;;14.48;9.10;;;;;;;13.75;100.00;101005.50;4975676;28;20030;-89
2023/05/09 11:15:28;;;;;;;14.13;9.37;;;;;;;13.81;100.00;100999.09;4976356;28;20027;-89
2023/05/09 11:18:13;;;;;;;12.93;8.95;;;;;;;13.72;100.00;101005.97;4976485;28;20125;-91
2023/05/09 11:20:50;;;;;;;15.07;9.73;;;;;;;13.83;100.00;100998.88;4960189;28;20042;-91
2023/05/09 11:23:21;;;;;;;12.40;9.13;;;;;;;13.81;100.00;101001.81;4976200;28;20488;-89
2023/05/09 11:25:50;;;;;;;12.10;7.72;;;;;;;13.72;100.00;100994.22;4976481;28;20136;-90
2023/05/09 11:28:51;;;;;;;12.30;7.10;;;;;;;13.59;100.00;100990.63;4976113;28;20047;-90
2023/05/09 11:31:20;;;;;;;13.98;7.28;;;;;;;13.50;100.00;100992.03;4975584;28;20035;-89
2023/05/09 11:33:55;;;;;;;10.95;7.13;;;;;;;13.40;100.00;100987.09;4975815;28;20026;-89
2023/05/09 11:36:32;;;;;;;10.35;7.10;;;;;;;13.40;100.00;100986.28;4975436;28;20049;-89
2023/05/09 11:39:11;;;;;;;14.20;8.43;;;;;;;13.45;100.00;100981.81;4993624;28;20037;-88
2023/05/09 11:41:45;;;;;;;14.33;7.70;;;;;;;13.49;100.00;100983.03;4976503;28;20093;-89
2023/05/09 11:44:12;;;;;;;11.13;7.25;;;;;;;13.35;100.00;100976.09;4992956;28;20057;-90
2023/05/09 11:46:40;;;;;;;10.63;7.22;;;;;;;13.32;100.00;100984.69;4975931;28;20034;-89